createdAt,value
2022-12-13T00:00:10.646Z,76.67
2022-12-13T00:01:21.017Z,76.74
2022-12-13T00:02:27.127Z,76.70
2022-12-13T00:03:31.138Z,76.66
2022-12-13T00:04:37.335Z,76.91
2022-12-13T00:05:46.463Z,76.56
2022-12-13T00:06:55.350Z,76.65
2022-12-13T00:07:59.588Z,76.85
2022-12-13T00:09:07.347Z,77.16
2022-12-13T00:10:14.138Z,76.84
2022-12-13T00:11:18.013Z,77.18
2022-12-13T00:12:25.239Z,76.82
2022-12-13T00:13:29.293Z,76.68
2022-12-13T00:14:35.539Z,76.73
2022-12-13T00:15:40.087Z,76.92
2022-12-13T00:16:49.763Z,76.76
2022-12-13T00:17:53.970Z,76.66
2022-12-13T00:19:02.989Z,76.90
2022-12-13T00:20:07.603Z,76.95
2022-12-13T00:21:21.150Z,76.74
2022-12-13T00:22:25.463Z,77.03
2022-12-13T00:23:32.458Z,76.47
2022-12-13T00:24:44.381Z,76.56
2022-12-13T00:25:49.511Z,76.68
2022-12-13T00:26:59.169Z,76.81
2022-12-13T00:28:02.487Z,77.00
2022-12-13T00:29:11.594Z,77.36
2022-12-13T00:30:15.151Z,77.19
2022-12-13T00:32:49.532Z,76.63
2022-12-13T00:33:53.647Z,76.48
2022-12-13T00:35:00.550Z,76.29
2022-12-13T00:36:07.862Z,76.63
2022-12-13T00:37:16.449Z,76.70
2022-12-13T00:38:20.137Z,76.37
2022-12-13T00:39:26.374Z,76.30
2022-12-13T00:40:33.176Z,76.62
2022-12-13T00:41:37.525Z,76.62
2022-12-13T00:42:43.499Z,76.25
2022-12-13T00:43:47.973Z,76.51
2022-12-13T00:44:53.975Z,76.37
2022-12-13T00:45:58.310Z,76.91
2022-12-13T00:47:04.290Z,77.04
2022-12-13T00:48:07.786Z,76.56
2022-12-13T00:49:16.132Z,76.77
2022-12-13T00:50:22.532Z,76.73
2022-12-13T00:51:29.126Z,76.41
2022-12-13T00:52:38.224Z,76.41
2022-12-13T00:53:41.954Z,76.54
2022-12-13T00:54:47.909Z,76.28
2022-12-13T00:55:51.278Z,76.53
2022-12-13T00:56:58.210Z,76.34
2022-12-13T00:58:01.500Z,76.83
2022-12-13T00:59:08.563Z,76.48
2022-12-13T01:00:15.794Z,76.35
2022-12-13T01:01:24.782Z,76.58
2022-12-13T01:02:31.567Z,76.69
2022-12-13T01:03:35.343Z,76.45
2022-12-13T01:04:41.373Z,76.29
2022-12-13T01:06:13.649Z,76.16
2022-12-13T01:07:10.576Z,76.78
2022-12-13T01:08:17.391Z,76.64
2022-12-13T01:09:30.095Z,76.66
2022-12-13T01:10:33.417Z,76.63
2022-12-13T01:11:39.316Z,76.94
2022-12-13T01:12:42.703Z,76.60
2022-12-13T01:13:49.626Z,76.63
2022-12-13T01:14:56.317Z,76.27
2022-12-13T01:16:04.729Z,76.71
2022-12-13T01:17:11.772Z,76.77
2022-12-13T01:18:18.537Z,76.68
2022-12-13T01:19:25.943Z,76.60
2022-12-13T01:20:29.187Z,76.73
2022-12-13T01:21:35.793Z,76.54
2022-12-13T01:22:41.857Z,76.83
2022-12-13T01:23:48.481Z,76.65
2022-12-13T01:24:55.284Z,76.45
2022-12-13T01:25:58.798Z,76.30
2022-12-13T01:27:04.821Z,76.75
2022-12-13T01:28:08.092Z,76.15
2022-12-13T01:29:17.018Z,76.11
2022-12-13T01:30:21.145Z,76.15
2022-12-13T01:31:28.241Z,76.29
2022-12-13T01:32:34.135Z,76.21
2022-12-13T01:33:39.320Z,76.21
2022-12-13T01:34:45.312Z,76.26
2022-12-13T01:35:49.845Z,76.39
2022-12-13T01:36:58.102Z,76.18
2022-12-13T01:38:02.338Z,76.33
2022-12-13T01:39:26.665Z,76.16
2022-12-13T01:40:32.981Z,76.57
2022-12-13T01:41:47.717Z,76.53
2022-12-13T01:42:51.023Z,76.57
2022-12-13T01:44:03.438Z,76.36
2022-12-13T01:45:27.369Z,76.32
2022-12-13T01:46:32.584Z,76.36
2022-12-13T01:47:48.886Z,76.61
2022-12-13T01:49:05.529Z,76.36
2022-12-13T01:50:35.588Z,76.23
2022-12-13T01:51:48.169Z,76.29
2022-12-13T01:53:00.213Z,76.30
2022-12-13T01:54:09.050Z,76.40
2022-12-13T01:55:23.217Z,76.45
2022-12-13T01:56:37.140Z,76.45
2022-12-13T01:57:50.076Z,76.80
2022-12-13T01:58:58.397Z,76.70
2022-12-13T02:00:05.083Z,76.80
2022-12-13T02:01:11.106Z,76.69
2022-12-13T02:02:19.295Z,77.07
2022-12-13T02:03:23.904Z,77.11
2022-12-13T02:04:44.242Z,77.02
2022-12-13T02:06:01.178Z,76.98
2022-12-13T02:07:07.808Z,76.54
2022-12-13T02:08:19.850Z,76.76
2022-12-13T02:09:24.306Z,76.78
2022-12-13T02:10:35.633Z,76.55
2022-12-13T02:11:43.855Z,76.76
2022-12-13T02:12:54.497Z,76.78
2022-12-13T02:13:57.982Z,76.59
2022-12-13T02:15:11.964Z,76.92
2022-12-13T02:16:44.638Z,76.86
2022-12-13T02:18:24.196Z,76.55
2022-12-13T02:20:22.520Z,76.83
2022-12-13T02:21:50.194Z,76.88
2022-12-13T02:23:40.032Z,76.85
2022-12-13T02:25:09.105Z,76.94
2022-12-13T02:27:01.228Z,76.95
2022-12-13T02:28:38.423Z,76.76
2022-12-13T02:30:30.748Z,76.59
2022-12-13T02:31:51.146Z,76.59
2022-12-13T02:33:32.813Z,76.58
2022-12-13T02:34:46.501Z,76.23
2022-12-13T02:36:05.909Z,76.40
2022-12-13T02:37:26.696Z,76.29
2022-12-13T02:38:47.849Z,76.02
2022-12-13T02:40:05.688Z,76.04
2022-12-13T02:41:23.816Z,75.84
2022-12-13T02:42:41.529Z,76.06
2022-12-13T02:44:01.251Z,76.05
2022-12-13T02:45:20.511Z,76.21
2022-12-13T02:46:38.934Z,76.31
2022-12-13T02:47:44.606Z,76.41
2022-12-13T02:48:58.077Z,76.76
2022-12-13T02:50:10.013Z,76.26
2022-12-13T02:51:20.733Z,76.47
2022-12-13T02:52:31.508Z,76.03
2022-12-13T02:53:41.495Z,76.44
2022-12-13T02:54:45.052Z,76.20
2022-12-13T02:55:51.683Z,76.28
2022-12-13T02:56:56.886Z,76.13
2022-12-13T02:58:02.820Z,75.84
2022-12-13T02:59:17.871Z,75.96
2022-12-13T03:00:37.907Z,75.78
2022-12-13T03:02:11.982Z,75.93
2022-12-13T03:03:38.796Z,76.25
2022-12-13T03:05:17.633Z,76.62
2022-12-13T03:06:47.676Z,76.19
2022-12-13T03:08:13.402Z,76.64
2022-12-13T03:09:43.170Z,76.41
2022-12-13T03:11:03.940Z,76.22
2022-12-13T03:12:41.692Z,76.46
2022-12-13T03:13:58.504Z,76.36
2022-12-13T03:15:18.707Z,76.50
2022-12-13T03:16:36.687Z,76.57
2022-12-13T03:17:55.089Z,76.86
2022-12-13T03:19:03.155Z,76.75
2022-12-13T03:20:23.312Z,76.85
2022-12-13T03:21:30.155Z,76.77
2022-12-13T03:22:35.224Z,76.68
2022-12-13T03:23:42.037Z,76.90
2022-12-13T03:24:45.614Z,77.27
2022-12-13T03:25:58.512Z,77.68
2022-12-13T03:27:02.153Z,77.74
2022-12-13T03:28:08.703Z,77.52
2022-12-13T03:29:12.045Z,77.63
2022-12-13T03:30:18.007Z,77.25
2022-12-13T03:31:25.770Z,77.55
2022-12-13T03:32:29.232Z,77.28
2022-12-13T03:33:38.982Z,77.16
2022-12-13T03:34:44.221Z,76.81
2022-12-13T03:35:53.074Z,77.03
2022-12-13T03:37:00.024Z,77.03
2022-12-13T03:38:05.845Z,76.79
2022-12-13T03:39:11.956Z,76.73
2022-12-13T03:40:15.581Z,76.78
2022-12-13T03:41:31.600Z,76.75
2022-12-13T03:42:35.975Z,76.46
2022-12-13T03:43:42.928Z,76.32
2022-12-13T03:44:46.165Z,76.25
2022-12-13T03:45:52.150Z,75.97
2022-12-13T03:46:57.987Z,75.95
2022-12-13T03:48:05.364Z,75.90
2022-12-13T03:49:17.421Z,75.43
2022-12-13T03:50:27.097Z,75.44
2022-12-13T03:51:33.331Z,75.99
2022-12-13T03:52:36.744Z,75.86
2022-12-13T03:53:43.565Z,75.96
2022-12-13T03:54:47.560Z,76.13
2022-12-13T03:55:53.850Z,76.35
2022-12-13T03:56:58.239Z,76.09
2022-12-13T03:58:07.865Z,76.27
2022-12-13T03:59:12.350Z,76.39
2022-12-13T04:00:19.587Z,76.29
2022-12-13T04:01:25.513Z,76.54
2022-12-13T04:02:31.198Z,76.23
2022-12-13T04:03:37.893Z,76.30
2022-12-13T04:04:44.675Z,76.68
2022-12-13T04:05:50.726Z,76.36
2022-12-13T04:06:54.092Z,76.54
2022-12-13T04:08:02.363Z,76.38
2022-12-13T04:09:05.921Z,76.44
2022-12-13T04:10:26.459Z,76.59
2022-12-13T04:11:45.100Z,76.54
2022-12-13T04:13:03.366Z,76.73
2022-12-13T04:14:06.695Z,76.72
2022-12-13T04:15:14.257Z,76.57
2022-12-13T04:16:18.285Z,76.79
2022-12-13T04:17:24.308Z,76.42
2022-12-13T04:18:27.660Z,76.76
2022-12-13T04:19:33.994Z,76.80
2022-12-13T04:20:40.722Z,76.55
2022-12-13T04:21:46.653Z,76.10
2022-12-13T04:22:50.103Z,76.06
2022-12-13T04:23:56.023Z,76.01
2022-12-13T04:25:05.523Z,75.86
2022-12-13T04:26:14.598Z,75.86
2022-12-13T04:27:17.932Z,75.78
2022-12-13T04:28:23.943Z,75.71
2022-12-13T04:29:34.451Z,75.57
2022-12-13T04:30:41.350Z,75.73
2022-12-13T04:31:45.545Z,75.50
2022-12-13T04:32:52.005Z,75.34
2022-12-13T04:33:55.251Z,75.11
2022-12-13T04:35:01.751Z,75.47
2022-12-13T04:36:11.589Z,75.05
2022-12-13T04:37:15.932Z,74.96
2022-12-13T04:38:23.179Z,75.05
2022-12-13T04:39:34.445Z,75.26
2022-12-13T04:40:38.093Z,74.63
2022-12-13T04:41:44.254Z,74.79
2022-12-13T04:42:48.486Z,74.63
2022-12-13T04:44:00.484Z,74.56
2022-12-13T04:45:04.384Z,74.85
2022-12-13T04:46:10.429Z,74.42
2022-12-13T04:47:13.664Z,74.37
2022-12-13T04:48:30.989Z,74.62
2022-12-13T04:49:35.392Z,74.26
2022-12-13T04:50:41.234Z,74.71
2022-12-13T04:51:47.586Z,74.42
2022-12-13T04:52:53.991Z,73.96
2022-12-13T04:54:23.526Z,73.90
2022-12-13T04:55:24.175Z,73.95
2022-12-13T04:56:27.592Z,74.12
2022-12-13T04:57:33.668Z,74.36
2022-12-13T04:58:37.137Z,74.22
2022-12-13T04:59:47.211Z,73.82
2022-12-13T05:00:53.199Z,73.93
2022-12-13T05:01:56.612Z,73.81
2022-12-13T05:03:02.559Z,74.04
2022-12-13T05:04:08.818Z,74.26
2022-12-13T05:05:13.380Z,74.52
2022-12-13T05:06:26.824Z,74.17
2022-12-13T05:07:36.443Z,73.71
2022-12-13T05:08:49.088Z,73.90
2022-12-13T05:09:52.452Z,73.86
2022-12-13T05:10:59.232Z,73.70
2022-12-13T05:12:02.531Z,74.12
2022-12-13T05:13:10.295Z,74.15
2022-12-13T05:14:13.618Z,73.81
2022-12-13T05:15:19.881Z,73.83
2022-12-13T05:16:24.683Z,74.11
2022-12-13T05:17:30.815Z,74.24
2022-12-13T05:18:36.658Z,74.32
2022-12-13T05:19:42.615Z,74.29
2022-12-13T05:20:48.584Z,74.21
2022-12-13T05:21:52.773Z,73.98
2022-12-13T05:23:02.220Z,74.05
2022-12-13T05:24:10.604Z,74.00
2022-12-13T05:25:16.797Z,74.07
2022-12-13T05:26:23.129Z,73.67
2022-12-13T05:27:29.998Z,74.38
2022-12-13T05:28:34.816Z,74.20
2022-12-13T05:29:41.863Z,74.23
2022-12-13T05:30:45.848Z,74.23
2022-12-13T05:31:51.856Z,73.91
2022-12-13T05:32:59.059Z,74.11
2022-12-13T05:34:02.507Z,74.22
2022-12-13T05:35:10.308Z,74.26
2022-12-13T05:36:16.187Z,74.40
2022-12-13T05:37:22.139Z,74.38
2022-12-13T05:38:30.061Z,74.47
2022-12-13T05:39:35.934Z,74.80
2022-12-13T05:40:39.259Z,74.77
2022-12-13T05:41:45.799Z,74.53
2022-12-13T05:42:51.848Z,74.45
2022-12-13T05:44:05.695Z,74.74
2022-12-13T05:45:13.735Z,74.63
2022-12-13T05:46:17.453Z,74.54
2022-12-13T05:47:23.373Z,74.56
2022-12-13T05:48:26.711Z,74.87
2022-12-13T05:49:33.651Z,75.05
2022-12-13T05:50:38.511Z,74.91
2022-12-13T05:51:44.788Z,75.01
2022-12-13T05:52:48.097Z,74.90
2022-12-13T05:53:56.632Z,74.53
2022-12-13T05:55:03.401Z,74.69
2022-12-13T05:56:10.200Z,74.78
2022-12-13T05:57:16.676Z,74.96
2022-12-13T05:58:23.266Z,74.91
2022-12-13T05:59:29.561Z,74.90
2022-12-13T06:00:33.734Z,75.08
2022-12-13T06:01:44.084Z,74.87
2022-12-13T06:02:47.577Z,74.90
2022-12-13T06:03:55.843Z,74.73
2022-12-13T06:05:03.187Z,74.64
2022-12-13T06:06:14.060Z,74.75
2022-12-13T06:07:17.585Z,74.72
2022-12-13T06:08:24.381Z,74.90
2022-12-13T06:09:39.990Z,74.57
2022-12-13T06:10:46.253Z,74.75
2022-12-13T06:12:01.104Z,74.99
2022-12-13T06:13:32.203Z,74.50
2022-12-13T06:14:33.957Z,74.57
2022-12-13T06:15:44.576Z,74.74
2022-12-13T06:16:50.813Z,75.08
2022-12-13T06:17:55.053Z,74.92
2022-12-13T06:19:04.331Z,74.99
2022-12-13T06:20:23.482Z,75.17
2022-12-13T06:21:40.759Z,75.01
2022-12-13T06:22:49.695Z,75.27
2022-12-13T06:23:56.405Z,75.19
2022-12-13T06:25:02.916Z,75.06
2022-12-13T06:26:11.213Z,75.11
2022-12-13T06:27:17.020Z,75.23
2022-12-13T06:28:23.467Z,74.84
2022-12-13T06:29:30.335Z,75.35
2022-12-13T06:30:33.752Z,75.69
2022-12-13T06:31:39.946Z,75.24
2022-12-13T06:32:45.986Z,75.31
2022-12-13T06:33:52.155Z,75.13
2022-12-13T06:34:58.914Z,75.10
2022-12-13T06:36:08.047Z,74.75
2022-12-13T06:37:17.303Z,75.33
2022-12-13T06:38:31.126Z,74.88
2022-12-13T06:39:38.544Z,75.07
2022-12-13T06:40:47.934Z,75.15
2022-12-13T06:41:54.736Z,75.15
2022-12-13T06:43:01.083Z,75.17
2022-12-13T06:44:05.419Z,75.05
2022-12-13T06:45:12.336Z,75.15
2022-12-13T06:46:19.270Z,75.21
2022-12-13T06:47:31.520Z,75.03
2022-12-13T06:48:40.752Z,75.03
2022-12-13T06:49:44.706Z,75.28
2022-12-13T06:50:51.463Z,75.26
2022-12-13T06:51:58.180Z,75.52
2022-12-13T06:53:04.250Z,75.55
2022-12-13T06:54:10.359Z,75.20
2022-12-13T06:55:24.107Z,75.38
2022-12-13T06:56:33.909Z,74.90
2022-12-13T06:57:37.979Z,75.14
2022-12-13T06:58:47.027Z,74.64
2022-12-13T06:59:53.431Z,74.75
2022-12-13T07:01:06.731Z,74.54
2022-12-13T07:02:25.529Z,74.81
2022-12-13T07:03:32.961Z,74.94
2022-12-13T07:04:38.840Z,74.90
2022-12-13T07:05:45.392Z,75.16
2022-12-13T07:06:51.462Z,75.06
2022-12-13T07:07:57.893Z,74.68
2022-12-13T07:09:04.695Z,74.46
2022-12-13T07:10:22.787Z,74.62
2022-12-13T07:11:34.977Z,74.56
2022-12-13T07:12:40.962Z,74.75
2022-12-13T07:13:48.222Z,74.89
2022-12-13T07:14:56.267Z,74.74
2022-12-13T07:16:02.274Z,74.42
2022-12-13T07:17:05.919Z,74.51
2022-12-13T07:18:12.120Z,74.30
2022-12-13T07:19:23.968Z,74.52
2022-12-13T07:20:31.273Z,74.16
2022-12-13T07:21:39.318Z,74.26
2022-12-13T07:22:49.188Z,74.39
2022-12-13T07:23:57.573Z,74.11
2022-12-13T07:25:00.924Z,74.24
2022-12-13T07:26:10.256Z,74.13
2022-12-13T07:27:16.211Z,73.69
2022-12-13T07:28:22.640Z,73.75
2022-12-13T07:29:26.040Z,73.57
2022-12-13T07:30:32.237Z,73.50
2022-12-13T07:31:39.770Z,73.43
2022-12-13T07:32:45.887Z,73.28
2022-12-13T07:33:51.865Z,72.88
2022-12-13T07:34:55.219Z,73.19
2022-12-13T07:36:04.923Z,72.58
2022-12-13T07:37:30.447Z,72.73
2022-12-13T07:38:37.291Z,72.57
2022-12-13T07:39:40.633Z,72.75
2022-12-13T07:40:46.511Z,72.53
2022-12-13T07:41:52.557Z,72.31
2022-12-13T07:42:59.386Z,71.74
2022-12-13T07:44:05.332Z,71.81
2022-12-13T07:45:12.713Z,71.58
2022-12-13T07:46:23.475Z,71.97
2022-12-13T07:47:39.079Z,71.77
2022-12-13T07:48:47.129Z,71.76
2022-12-13T07:49:53.100Z,71.30
2022-12-13T07:51:07.143Z,71.49
2022-12-13T07:52:14.587Z,70.88
2022-12-13T07:53:21.054Z,70.68
2022-12-13T07:54:28.162Z,70.58
2022-12-13T07:55:34.282Z,70.88
2022-12-13T07:56:41.263Z,70.63
2022-12-13T07:57:47.123Z,70.64
2022-12-13T07:58:55.696Z,70.31
2022-12-13T08:00:02.635Z,70.05
2022-12-13T08:01:18.776Z,70.08
2022-12-13T08:02:24.795Z,69.79
2022-12-13T08:03:31.224Z,69.73
2022-12-13T08:04:38.100Z,69.58
2022-12-13T08:05:45.655Z,69.26
2022-12-13T08:06:51.966Z,69.54
2022-12-13T08:07:58.022Z,69.50
2022-12-13T08:09:04.049Z,69.21
2022-12-13T08:10:10.799Z,69.21
2022-12-13T08:11:19.224Z,69.10
2022-12-13T08:12:25.353Z,68.63
2022-12-13T08:13:31.366Z,67.81
2022-12-13T08:14:39.874Z,67.72
2022-12-13T08:15:45.945Z,67.50
2022-12-13T08:16:52.855Z,67.23
2022-12-13T08:18:01.113Z,67.10
2022-12-13T08:19:10.365Z,66.07
2022-12-13T08:20:13.729Z,66.15
2022-12-13T08:21:53.263Z,65.29
2022-12-13T08:23:02.115Z,63.15
2022-12-13T08:24:15.308Z,62.28
2022-12-13T08:25:21.821Z,61.96
2022-12-13T08:26:25.270Z,61.45
2022-12-13T08:27:31.464Z,61.71
2022-12-13T08:28:38.892Z,60.38
2022-12-13T08:29:47.664Z,60.08
2022-12-13T08:30:55.556Z,59.54
2022-12-13T08:32:01.806Z,59.24
2022-12-13T08:33:08.056Z,59.08
2022-12-13T08:34:14.804Z,59.39
2022-12-13T08:35:21.077Z,58.48
2022-12-13T08:36:27.570Z,57.92
2022-12-13T08:37:30.865Z,57.70
2022-12-13T08:38:36.844Z,56.90
2022-12-13T08:39:44.770Z,56.88
2022-12-13T08:40:51.664Z,57.11
2022-12-13T08:41:57.722Z,57.20
2022-12-13T08:43:03.833Z,58.78
2022-12-13T08:44:10.006Z,58.08
2022-12-13T08:45:19.561Z,58.31
2022-12-13T08:46:25.688Z,58.85
2022-12-13T08:47:32.733Z,58.96
2022-12-13T08:48:44.895Z,59.69
2022-12-13T08:49:48.558Z,60.45
2022-12-13T08:50:55.456Z,60.12
2022-12-13T08:52:02.923Z,59.23
2022-12-13T08:53:09.255Z,58.73
2022-12-13T08:54:31.111Z,58.07
2022-12-13T08:55:37.845Z,57.36
2022-12-13T08:56:45.064Z,58.62
2022-12-13T08:57:51.147Z,59.18
2022-12-13T08:58:58.224Z,59.33
2022-12-13T09:00:04.180Z,60.29
2022-12-13T09:01:13.746Z,61.03
2022-12-13T09:02:20.772Z,60.99
2022-12-13T09:03:26.859Z,61.49
2022-12-13T09:04:32.993Z,61.59
2022-12-13T09:05:38.953Z,61.69
2022-12-13T09:06:46.234Z,61.95
2022-12-13T09:07:58.441Z,62.39
2022-12-13T09:09:08.187Z,61.79
2022-12-13T09:10:27.053Z,61.45
2022-12-13T09:11:39.883Z,61.44
2022-12-13T09:12:46.823Z,61.23
2022-12-13T09:13:53.667Z,60.48
2022-12-13T09:15:23.017Z,60.11
2022-12-13T09:16:35.652Z,59.54
2022-12-13T09:17:42.242Z,58.91
2022-12-13T09:18:55.102Z,58.86
2022-12-13T09:20:02.892Z,57.83
2022-12-13T09:21:22.476Z,58.56
2022-12-13T09:22:38.156Z,59.62
2022-12-13T09:23:53.141Z,58.08
2022-12-13T09:25:15.069Z,58.59
2022-12-13T09:26:38.382Z,58.57
2022-12-13T09:27:44.617Z,58.49
2022-12-13T09:28:51.382Z,59.66
2022-12-13T09:29:57.679Z,58.80
2022-12-13T09:31:04.707Z,59.04
2022-12-13T09:32:13.432Z,58.75
2022-12-13T09:33:30.191Z,59.30
2022-12-13T09:34:37.052Z,59.18
2022-12-13T09:35:44.975Z,58.34
2022-12-13T09:36:51.890Z,56.96
2022-12-13T09:37:59.186Z,57.44
2022-12-13T09:39:05.343Z,56.90
2022-12-13T09:40:25.374Z,55.77
2022-12-13T09:41:41.370Z,55.00
2022-12-13T09:43:12.374Z,55.61
2022-12-13T09:44:32.294Z,54.74
2022-12-13T09:45:50.909Z,55.17
2022-12-13T09:47:02.668Z,55.61
2022-12-13T09:48:14.088Z,55.64
2022-12-13T09:49:37.470Z,56.48
2022-12-13T09:50:51.564Z,56.15
2022-12-13T09:52:21.325Z,56.25
2022-12-13T09:53:33.910Z,57.05
2022-12-13T09:54:48.255Z,57.42
2022-12-13T09:56:09.936Z,57.73
2022-12-13T09:57:32.061Z,57.49
2022-12-13T09:58:40.634Z,58.02
2022-12-13T09:59:47.043Z,58.13
2022-12-13T10:00:58.081Z,58.58
2022-12-13T10:02:20.738Z,58.94
2022-12-13T10:03:31.009Z,59.60
2022-12-13T10:04:37.052Z,59.35
2022-12-13T10:05:47.332Z,59.94
2022-12-13T10:06:57.018Z,60.20
2022-12-13T10:08:12.306Z,59.88
2022-12-13T10:09:19.050Z,59.82
2022-12-13T10:10:26.106Z,60.87
2022-12-13T10:11:33.560Z,61.19
2022-12-13T10:12:40.573Z,61.41
2022-12-13T10:13:54.915Z,61.45
2022-12-13T10:15:06.374Z,62.00
2022-12-13T10:16:36.312Z,61.73
2022-12-13T10:17:51.538Z,62.54
2022-12-13T10:19:28.498Z,62.47
2022-12-13T10:20:38.227Z,63.03
2022-12-13T10:21:48.856Z,63.13
2022-12-13T10:23:31.415Z,62.82
2022-12-13T10:24:32.942Z,62.29
2022-12-13T10:25:54.981Z,62.77
2022-12-13T10:27:21.651Z,63.55
2022-12-13T10:28:34.007Z,63.38
2022-12-13T10:30:05.950Z,63.37
2022-12-13T10:31:18.391Z,63.41
2022-12-13T10:32:22.778Z,63.68
2022-12-13T10:33:34.968Z,63.84
2022-12-13T10:34:44.698Z,64.16
2022-12-13T10:36:11.263Z,62.56
2022-12-13T10:37:33.441Z,62.84
2022-12-13T10:38:43.944Z,62.50
2022-12-13T10:39:48.102Z,61.66
2022-12-13T10:40:54.258Z,61.50
2022-12-13T10:42:09.249Z,61.99
2022-12-13T10:43:18.918Z,61.45
2022-12-13T10:44:27.403Z,61.47
2022-12-13T10:45:31.679Z,61.42
2022-12-13T10:46:40.720Z,61.80
2022-12-13T10:47:48.763Z,61.54
2022-12-13T10:48:56.142Z,61.68
2022-12-13T10:50:06.737Z,60.63
2022-12-13T10:51:18.021Z,60.18
2022-12-13T10:52:32.061Z,60.69
2022-12-13T10:53:47.861Z,59.43
2022-12-13T10:54:52.854Z,60.65
2022-12-13T10:56:09.400Z,60.92
2022-12-13T10:57:13.678Z,59.81
2022-12-13T10:58:23.642Z,59.34
2022-12-13T10:59:36.890Z,58.64
2022-12-13T11:00:47.809Z,59.45
2022-12-13T11:01:51.893Z,59.53
2022-12-13T11:02:58.895Z,59.44
2022-12-13T11:04:08.427Z,59.28
2022-12-13T11:05:34.149Z,58.54
2022-12-13T11:06:47.256Z,59.69
2022-12-13T11:07:55.477Z,59.94
2022-12-13T11:09:23.182Z,60.41
2022-12-13T11:10:32.591Z,60.31
2022-12-13T11:11:38.632Z,60.52
2022-12-13T11:12:46.054Z,60.07
2022-12-13T11:14:01.791Z,60.54
2022-12-13T11:15:23.108Z,60.62
2022-12-13T11:16:35.849Z,61.20
2022-12-13T11:17:54.665Z,60.98
2022-12-13T11:19:05.545Z,61.27
2022-12-13T11:20:24.490Z,60.51
2022-12-13T11:21:39.433Z,60.49
2022-12-13T11:22:46.329Z,59.87
2022-12-13T11:23:52.403Z,59.64
2022-12-13T11:25:11.164Z,60.02
2022-12-13T11:26:25.916Z,60.08
2022-12-13T11:28:01.242Z,60.19
2022-12-13T11:29:44.937Z,60.00
2022-12-13T11:31:12.439Z,60.13
2022-12-13T11:32:44.453Z,60.32
2022-12-13T11:34:08.435Z,60.82
2022-12-13T11:35:28.605Z,61.11
2022-12-13T11:36:52.288Z,60.47
2022-12-13T11:38:19.745Z,60.22
2022-12-13T11:39:36.242Z,61.22
2022-12-13T11:40:52.413Z,61.57
2022-12-13T11:42:14.006Z,61.75
2022-12-13T11:43:40.569Z,62.19
2022-12-13T11:45:03.116Z,62.96
2022-12-13T11:46:22.940Z,62.60
2022-12-13T11:47:40.753Z,62.19
2022-12-13T11:48:59.536Z,62.19
2022-12-13T11:50:33.087Z,62.01
2022-12-13T11:51:51.972Z,63.31
2022-12-13T11:53:20.111Z,64.05
2022-12-13T11:54:41.263Z,63.94
2022-12-13T11:55:58.361Z,64.04
2022-12-13T11:57:21.712Z,64.60
2022-12-13T12:00:33.858Z,65.52
2022-12-13T12:01:53.069Z,65.35
2022-12-13T12:03:16.321Z,66.20
2022-12-13T12:04:37.622Z,67.07
2022-12-13T12:05:55.938Z,66.35
2022-12-13T12:07:32.539Z,66.98
2022-12-13T12:08:49.616Z,68.25
2022-12-13T12:10:12.678Z,68.30
2022-12-13T12:11:34.312Z,68.11
2022-12-13T12:12:45.972Z,67.96
2022-12-13T12:14:02.115Z,67.82
2022-12-13T12:15:18.477Z,67.63
2022-12-13T12:16:46.487Z,68.06
2022-12-13T12:17:52.771Z,67.54
2022-12-13T12:19:01.414Z,67.75
2022-12-13T12:20:23.272Z,67.71
2022-12-13T12:22:12.691Z,67.29
2022-12-13T12:23:31.586Z,68.04
2022-12-13T12:25:03.545Z,67.64
2022-12-13T12:26:17.812Z,67.79
2022-12-13T12:27:43.713Z,67.56
2022-12-13T12:29:24.052Z,67.57
2022-12-13T12:30:51.841Z,66.54
2022-12-13T12:32:13.965Z,66.35
2022-12-13T12:33:37.966Z,66.74
2022-12-13T12:35:04.624Z,67.06
2022-12-13T12:36:43.852Z,66.64
2022-12-13T12:38:12.967Z,65.22
2022-12-13T12:39:54.288Z,65.05
2022-12-13T12:41:27.532Z,65.54
2022-12-13T12:43:15.310Z,65.31
2022-12-13T12:44:47.872Z,64.94
2022-12-13T12:46:20.381Z,64.87
2022-12-13T12:48:41.310Z,64.31
2022-12-13T12:49:55.167Z,64.33
2022-12-13T12:51:13.962Z,64.29
2022-12-13T12:52:34.997Z,64.20
2022-12-13T12:53:54.149Z,63.89
2022-12-13T12:55:21.838Z,64.31
2022-12-13T12:56:48.254Z,63.96
2022-12-13T12:58:18.637Z,64.04
2022-12-13T12:59:42.438Z,63.61
2022-12-13T13:01:11.271Z,63.08
2022-12-13T13:02:29.591Z,63.36
2022-12-13T13:03:44.658Z,63.26
2022-12-13T13:05:00.987Z,62.93
2022-12-13T13:06:18.984Z,62.54
2022-12-13T13:07:39.996Z,63.10
2022-12-13T13:08:55.616Z,63.03
2022-12-13T13:10:25.923Z,63.15
2022-12-13T13:11:43.027Z,63.64
2022-12-13T13:12:50.512Z,62.97
2022-12-13T13:14:28.833Z,63.12
2022-12-13T13:15:59.535Z,64.10
2022-12-13T13:17:50.529Z,64.09
2022-12-13T13:18:56.163Z,63.48
2022-12-13T13:20:23.587Z,64.18
2022-12-13T13:21:53.833Z,62.64
2022-12-13T13:23:39.868Z,63.13
2022-12-13T13:24:31.658Z,61.67
2022-12-13T13:26:07.720Z,60.94
2022-12-13T13:27:32.751Z,61.16
2022-12-13T13:28:40.652Z,61.63
2022-12-13T13:29:47.817Z,62.10
2022-12-13T13:31:10.450Z,62.18
2022-12-13T13:32:34.702Z,62.96
2022-12-13T13:33:53.520Z,62.95
2022-12-13T13:35:53.897Z,63.45
2022-12-13T13:37:02.438Z,63.92
2022-12-13T13:39:01.644Z,64.60
2022-12-13T13:40:37.399Z,65.31
2022-12-13T13:42:20.266Z,66.15
2022-12-13T13:43:34.652Z,65.76
2022-12-13T13:45:27.317Z,65.98
2022-12-13T13:46:31.066Z,66.35
2022-12-13T13:47:46.648Z,66.29
2022-12-13T13:49:12.155Z,66.49
2022-12-13T13:51:28.060Z,66.43
2022-12-13T13:52:59.464Z,66.77
2022-12-13T13:55:20.501Z,67.44
2022-12-13T13:56:50.192Z,67.35
2022-12-13T13:58:40.593Z,67.80
2022-12-13T14:00:23.356Z,68.74
2022-12-13T14:02:13.491Z,68.99
2022-12-13T14:04:24.672Z,68.86
2022-12-13T14:06:26.547Z,69.14
2022-12-13T14:08:20.573Z,69.83
2022-12-13T14:10:17.887Z,69.95
2022-12-13T14:12:25.732Z,70.06
2022-12-13T14:14:38.683Z,69.79
2022-12-13T14:16:35.913Z,70.14
2022-12-13T14:18:32.897Z,70.26
2022-12-13T14:20:31.919Z,69.89
2022-12-13T14:22:05.723Z,69.77
2022-12-13T14:23:32.238Z,69.97
2022-12-13T14:24:56.981Z,69.98
2022-12-13T14:26:43.894Z,70.07
2022-12-13T14:28:04.433Z,69.93
2022-12-13T14:29:24.174Z,69.97
2022-12-13T14:30:31.568Z,70.11
2022-12-13T14:31:44.744Z,69.65
2022-12-13T14:32:53.479Z,69.99
2022-12-13T14:34:03.287Z,69.99
2022-12-13T14:35:25.587Z,69.98
2022-12-13T14:36:36.711Z,69.65
2022-12-13T14:37:42.873Z,69.71
2022-12-13T14:38:49.002Z,69.68
2022-12-13T14:39:55.325Z,69.63
2022-12-13T14:41:06.304Z,69.64
2022-12-13T14:42:29.675Z,69.50
2022-12-13T14:43:38.822Z,69.63
2022-12-13T14:44:47.522Z,69.75
2022-12-13T14:45:59.819Z,69.81
2022-12-13T14:47:11.477Z,69.71
2022-12-13T14:48:28.860Z,69.88
2022-12-13T14:49:41.923Z,69.76
2022-12-13T14:50:56.725Z,69.64
2022-12-13T14:52:11.251Z,69.88
2022-12-13T14:53:30.717Z,70.00
2022-12-13T14:54:50.341Z,69.83
2022-12-13T14:56:27.534Z,70.03
2022-12-13T14:57:38.283Z,70.14
2022-12-13T14:58:58.009Z,70.31
2022-12-13T15:00:27.614Z,70.67
2022-12-13T15:01:37.274Z,71.01
2022-12-13T15:02:55.834Z,71.31
2022-12-13T15:04:23.102Z,71.47
2022-12-13T15:05:33.361Z,71.58
2022-12-13T15:06:36.916Z,71.69
2022-12-13T15:07:46.268Z,71.53
2022-12-13T15:08:52.649Z,71.40
2022-12-13T15:10:04.688Z,71.48
2022-12-13T15:11:13.459Z,71.22
2022-12-13T15:12:25.148Z,71.33
2022-12-13T15:13:41.095Z,71.38
2022-12-13T15:14:56.595Z,71.65
2022-12-13T15:16:12.684Z,71.71
2022-12-13T15:17:33.807Z,71.88
2022-12-13T15:18:50.510Z,71.91
2022-12-13T15:20:01.005Z,71.85
2022-12-13T15:21:28.710Z,71.74
2022-12-13T15:22:38.747Z,71.90
2022-12-13T15:23:49.699Z,71.72
2022-12-13T15:25:18.388Z,71.52
2022-12-13T15:26:30.265Z,71.74
2022-12-13T15:27:37.005Z,71.11
2022-12-13T15:28:44.785Z,71.24
2022-12-13T15:29:54.521Z,71.01
2022-12-13T15:31:07.355Z,71.19
2022-12-13T15:32:19.508Z,71.23
2022-12-13T15:33:34.395Z,71.04
2022-12-13T15:34:43.487Z,71.18
2022-12-13T15:35:53.395Z,71.43
2022-12-13T15:37:01.125Z,71.30
2022-12-13T15:38:08.543Z,71.54
2022-12-13T15:39:18.514Z,71.78
2022-12-13T15:40:26.265Z,71.70
2022-12-13T15:41:37.168Z,71.86
2022-12-13T15:42:50.336Z,71.60
2022-12-13T15:44:04.221Z,71.77
2022-12-13T15:45:27.375Z,71.71
2022-12-13T15:46:40.906Z,71.80
2022-12-13T15:47:50.231Z,71.68